Time;durP1;ratioP1;P1;durP2;ratioP2;P2;SDS_P1;SDS_P2;PMS_P1;PMS_P2;Temp;Humidity;BMP_temperature;BMP_pressure;BME280_temperature;BME280_humidity;BME280_pressure;Samples;Min_cycle;Max_cycle;Signal;HPM_P1;HPM_P2
2022/09/08 00:00:54;;;;;;;2.30;1.80;;;24.50;71.50;;;;;;4953634;28;21071;-74
2022/09/08 00:03:25;;;;;;;1.90;1.70;;;24.50;71.60;;;;;;4953214;29;20431;-74
2022/09/08 00:06:05;;;;;;;2.00;1.80;;;24.50;71.60;;;;;;4952403;28;20895;-75
2022/09/08 00:08:36;;;;;;;2.30;2.10;;;24.50;71.60;;;;;;4972240;28;20487;-75
2022/09/08 00:11:08;;;;;;;2.80;2.07;;;24.40;71.40;;;;;;4955172;28;20423;-74
2022/09/08 00:13:39;;;;;;;2.23;1.80;;;24.40;71.50;;;;;;4952574;29;20502;-74
2022/09/08 00:16:10;;;;;;;3.00;2.10;;;24.40;71.60;;;;;;4953875;28;20434;-75
2022/09/08 00:18:41;;;;;;;2.30;1.90;;;24.40;71.50;;;;;;4955544;28;20502;-74
2022/09/08 00:21:07;;;;;;;3.00;2.20;;;24.40;71.50;;;;;;4959104;28;20446;-75
2022/09/08 00:23:38;;;;;;;2.47;2.27;;;24.40;71.50;;;;;;4987893;28;20598;-75
2022/09/08 00:26:07;;;;;;;3.17;2.20;;;24.40;71.60;;;;;;4954665;28;20439;-75
2022/09/08 00:28:55;;;;;;;2.27;1.80;;;24.40;71.60;;;;;;4952626;29;20486;-75
2022/09/08 00:31:23;;;;;;;2.67;2.10;;;24.40;72.40;;;;;;4957481;28;20488;-74
2022/09/08 00:33:51;;;;;;;3.13;2.10;;;24.40;71.60;;;;;;4986736;28;20524;-75
2022/09/08 00:36:18;;;;;;;4.60;2.50;;;24.40;71.70;;;;;;4971811;28;20796;-75
2022/09/08 00:38:50;;;;;;;4.93;2.43;;;24.30;71.60;;;;;;4971541;28;20430;-75
2022/09/08 00:41:20;;;;;;;2.17;1.97;;;24.30;71.70;;;;;;4945199;29;20497;-76
2022/09/08 00:43:50;;;;;;;3.70;2.73;;;24.30;71.70;;;;;;4933226;29;20523;-75
2022/09/08 00:46:33;;;;;;;4.30;2.10;;;24.30;71.60;;;;;;4958060;28;20807;-75
2022/09/08 00:49:18;;;;;;;2.43;2.23;;;24.30;71.70;;;;;;4968417;28;20530;-74
2022/09/08 00:51:47;;;;;;;6.87;2.77;;;24.30;71.80;;;;;;4953247;28;20435;-75
2022/09/08 00:54:18;;;;;;;3.30;2.30;;;24.30;71.70;;;;;;4955324;28;20442;-75
2022/09/08 00:56:46;;;;;;;5.37;2.70;;;24.20;71.70;;;;;;4968571;28;20525;-75
2022/09/08 00:59:15;;;;;;;2.37;2.17;;;24.30;71.80;;;;;;4933078;29;20427;-75
2022/09/08 01:01:44;;;;;;;2.10;1.87;;;24.20;71.70;;;;;;4934976;28;20407;-75
2022/09/08 01:04:12;;;;;;;2.77;2.37;;;24.20;71.70;;;;;;4952177;29;20782;-75
2022/09/08 01:15:11;;;;;;;3.37;2.30;;;24.20;71.90;;;;;;4961549;28;20442;-75
2022/09/08 01:17:40;;;;;;;3.40;2.50;;;24.20;71.90;;;;;;4971378;28;20942;-75
2022/09/08 01:20:09;;;;;;;3.00;2.30;;;24.20;72.80;;;;;;4970722;28;20506;-75
2022/09/08 01:23:06;;;;;;;3.27;2.50;;;24.20;72.00;;;;;;4955029;28;20435;-75
2022/09/08 01:25:56;;;;;;;2.20;2.00;;;24.20;72.00;;;;;;4964742;28;20434;-74
2022/09/08 01:28:40;;;;;;;2.67;2.47;;;24.10;71.90;;;;;;4971465;28;20954;-76
2022/09/08 01:31:10;;;;;;;2.63;2.33;;;24.10;72.00;;;;;;4954933;28;20449;-75
2022/09/08 01:33:38;;;;;;;3.00;2.33;;;24.10;72.00;;;;;;4953164;28;20855;-75
2022/09/08 01:36:09;;;;;;;2.23;2.03;;;24.10;72.10;;;;;;4953254;29;20408;-75
2022/09/08 01:38:40;;;;;;;2.30;2.10;;;24.10;72.00;;;;;;4940423;29;20511;-75
2022/09/08 01:41:06;;;;;;;6.00;2.40;;;24.10;72.00;;;;;;4948773;29;20410;-75
2022/09/08 01:43:32;;;;;;;2.80;2.20;;;24.10;72.10;;;;;;4949472;28;20485;-75
2022/09/08 01:46:03;;;;;;;3.40;2.10;;;24.10;72.10;;;;;;4952069;29;20434;-74
2022/09/08 01:48:34;;;;;;;2.53;2.30;;;24.10;72.10;;;;;;4965106;28;20434;-75
2022/09/08 01:51:06;;;;;;;2.37;2.17;;;24.10;72.10;;;;;;4935517;29;20468;-75
2022/09/08 01:53:33;;;;;;;2.57;2.37;;;24.10;72.10;;;;;;4964948;28;20508;-75
2022/09/08 01:55:58;;;;;;;2.93;2.27;;;24.10;72.20;;;;;;4958847;28;20458;-75
2022/09/08 01:58:27;;;;;;;2.23;2.07;;;24.10;72.20;;;;;;4942877;29;20550;-75
2022/09/08 02:00:57;;;;;;;2.80;2.60;;;24.10;72.30;;;;;;4970247;28;20202;-75
2022/09/08 02:03:24;;;;;;;3.60;2.70;;;24.10;72.30;;;;;;4943506;29;20535;-75
2022/09/08 02:05:52;;;;;;;2.60;2.10;;;24.00;72.20;;;;;;4957377;28;20513;-75
2022/09/08 02:08:18;;;;;;;3.63;2.33;;;24.00;72.30;;;;;;4963627;28;20443;-75
2022/09/08 02:10:58;;;;;;;2.50;2.23;;;24.00;72.30;;;;;;4971456;28;20435;-75
2022/09/08 02:13:28;;;;;;;2.87;2.63;;;24.00;72.20;;;;;;4950585;28;20450;-75
2022/09/08 02:16:09;;;;;;;2.13;1.87;;;24.00;72.20;;;;;;4956272;28;20423;-75
2022/09/08 02:18:35;;;;;;;3.50;2.53;;;24.00;72.20;;;;;;4967798;28;20456;-75
2022/09/08 02:21:11;;;;;;;5.27;2.50;;;24.00;72.20;;;;;;4974420;28;20421;-75
2022/09/08 02:23:39;;;;;;;2.63;2.43;;;24.00;72.10;;;;;;4962606;28;20454;-75
2022/09/08 02:26:21;;;;;;;2.90;2.23;;;24.00;72.10;;;;;;4951829;28;20901;-75
2022/09/08 02:28:53;;;;;;;2.33;1.97;;;24.00;72.20;;;;;;4940965;28;21122;-75
2022/09/08 02:31:22;;;;;;;3.00;2.70;;;24.00;72.30;;;;;;4974360;28;20422;-75
2022/09/08 02:33:52;;;;;;;2.70;2.50;;;24.00;72.30;;;;;;4956207;28;21003;-75
2022/09/08 02:36:18;;;;;;;2.50;2.30;;;24.00;72.30;;;;;;4950096;29;20446;-75
2022/09/08 02:38:52;;;;;;;2.97;2.50;;;24.00;72.20;;;;;;4968509;28;20560;-75
2022/09/08 02:41:22;;;;;;;2.70;2.30;;;23.90;72.20;;;;;;4946013;29;20971;-75
2022/09/08 02:43:53;;;;;;;2.50;2.30;;;23.90;72.20;;;;;;4956160;28;20798;-75
2022/09/08 02:46:21;;;;;;;2.60;2.40;;;23.90;72.20;;;;;;4959672;28;20431;-75
2022/09/08 02:48:49;;;;;;;3.57;2.47;;;23.90;72.20;;;;;;4963709;28;20434;-75
2022/09/08 02:51:19;;;;;;;2.50;2.30;;;23.90;72.10;;;;;;4974177;28;20210;-75
2022/09/08 02:53:54;;;;;;;2.20;2.00;;;23.90;72.20;;;;;;4964304;28;20474;-75
2022/09/08 02:56:19;;;;;;;2.73;2.47;;;23.90;72.00;;;;;;4974127;28;20516;-74
2022/09/08 02:58:45;;;;;;;3.03;2.60;;;23.80;72.00;;;;;;4965180;28;20446;-75
2022/09/08 03:01:11;;;;;;;3.90;3.00;;;23.90;72.20;;;;;;4938521;29;20917;-75
2022/09/08 03:03:40;;;;;;;2.60;2.20;;;23.80;72.10;;;;;;4955526;28;20473;-75
2022/09/08 03:06:10;;;;;;;3.13;2.20;;;23.90;72.20;;;;;;4972986;28;20423;-75
2022/09/08 03:08:37;;;;;;;2.83;2.50;;;23.80;72.10;;;;;;4964499;28;20436;-75
2022/09/08 03:11:03;;;;;;;5.00;2.50;;;23.80;72.00;;;;;;4953694;28;20449;-75
2022/09/08 03:13:29;;;;;;;3.13;2.80;;;23.80;72.10;;;;;;4956359;28;20466;-75
2022/09/08 03:15:58;;;;;;;2.73;2.50;;;23.80;72.10;;;;;;4947425;28;20422;-75
2022/09/08 03:18:26;;;;;;;2.90;2.57;;;23.80;72.20;;;;;;4972552;28;20871;-75
2022/09/08 03:21:03;;;;;;;5.80;2.53;;;23.80;72.30;;;;;;4973174;28;20446;-75
2022/09/08 03:23:33;;;;;;;3.20;2.70;;;23.80;72.40;;;;;;4969692;28;20482;-75
2022/09/08 03:26:05;;;;;;;3.17;2.30;;;23.80;72.40;;;;;;4947354;28;20430;-75
2022/09/08 03:28:33;;;;;;;2.73;2.37;;;23.80;72.40;;;;;;4954003;28;20426;-75
2022/09/08 03:31:06;;;;;;;3.43;2.37;;;23.80;72.40;;;;;;4954833;28;20413;-75
2022/09/08 03:33:32;;;;;;;2.67;2.33;;;23.80;72.40;;;;;;4937764;29;20499;-75
2022/09/08 03:36:03;;;;;;;2.80;2.60;;;23.80;72.30;;;;;;4956744;28;20461;-75
2022/09/08 03:38:36;;;;;;;5.43;2.43;;;23.80;72.40;;;;;;4972198;28;20430;-75
2022/09/08 03:41:12;;;;;;;2.90;2.23;;;23.70;72.70;;;;;;4956414;28;20506;-75
2022/09/08 03:43:46;;;;;;;2.97;2.43;;;23.70;72.40;;;;;;4957514;28;20533;-75
2022/09/08 03:46:13;;;;;;;2.67;2.17;;;23.70;72.40;;;;;;4972796;28;20418;-75
2022/09/08 03:48:44;;;;;;;4.13;2.53;;;23.70;72.60;;;;;;4955967;28;20518;-75
2022/09/08 03:51:14;;;;;;;4.33;2.87;;;23.70;72.70;;;;;;4937946;29;20529;-75
2022/09/08 03:53:42;;;;;;;2.33;2.07;;;23.70;72.90;;;;;;4921709;29;20465;-75
2022/09/08 03:56:10;;;;;;;2.73;2.20;;;23.70;73.10;;;;;;4955202;28;20447;-75
2022/09/08 03:58:37;;;;;;;3.50;2.40;;;23.70;73.30;;;;;;4940255;28;20418;-75
2022/09/08 04:01:19;;;;;;;3.60;2.53;;;23.70;73.40;;;;;;4938541;29;20458;-75
2022/09/08 04:03:47;;;;;;;2.90;2.57;;;23.70;73.60;;;;;;4954293;28;20875;-75
2022/09/08 04:06:15;;;;;;;2.50;2.30;;;23.70;73.50;;;;;;4972688;28;20437;-75
2022/09/08 04:08:41;;;;;;;2.67;2.47;;;23.70;73.70;;;;;;4971583;28;20509;-75
2022/09/08 04:11:10;;;;;;;3.23;2.10;;;23.60;73.80;;;;;;4954632;28;20458;-75
2022/09/08 04:13:36;;;;;;;3.73;2.33;;;23.60;73.90;;;;;;4936831;29;20482;-75
2022/09/08 04:16:07;;;;;;;4.33;2.20;;;23.60;74.00;;;;;;4954478;28;20207;-75
2022/09/08 04:18:36;;;;;;;3.17;2.37;;;23.60;73.80;;;;;;4952813;29;20431;-75
2022/09/08 04:21:05;;;;;;;3.03;2.50;;;23.60;74.10;;;;;;4971348;28;20426;-75
2022/09/08 04:23:34;;;;;;;2.20;1.93;;;23.60;74.10;;;;;;4972143;28;20453;-75
2022/09/08 04:26:09;;;;;;;2.87;2.30;;;23.60;74.20;;;;;;4954013;28;20439;-74
2022/09/08 04:28:36;;;;;;;3.73;2.43;;;23.60;74.20;;;;;;4952656;29;20812;-75
2022/09/08 04:31:04;;;;;;;2.20;2.00;;;23.60;74.30;;;;;;4972411;28;20463;-75
2022/09/08 04:33:31;;;;;;;3.30;2.30;;;23.60;74.40;;;;;;4971826;28;20568;-75
2022/09/08 04:36:11;;;;;;;3.57;2.07;;;23.60;74.40;;;;;;4935639;29;20454;-74
2022/09/08 04:38:39;;;;;;;3.10;2.27;;;23.60;74.60;;;;;;4934802;29;20916;-74
2022/09/08 04:41:10;;;;;;;2.37;2.00;;;23.60;74.60;;;;;;4959254;28;20875;-75
2022/09/08 04:43:37;;;;;;;2.33;2.13;;;23.60;74.80;;;;;;4937130;29;20462;-75
2022/09/08 04:46:09;;;;;;;2.93;2.30;;;23.50;74.80;;;;;;4952795;28;20423;-75
2022/09/08 04:48:39;;;;;;;3.77;2.33;;;23.50;74.80;;;;;;4953811;28;20410;-75
2022/09/08 04:51:06;;;;;;;3.00;2.40;;;23.50;75.00;;;;;;4970151;28;20555;-74
2022/09/08 04:53:36;;;;;;;2.57;2.23;;;23.50;75.10;;;;;;4971711;28;21067;-73
2022/09/08 04:56:04;;;;;;;2.73;2.37;;;23.50;75.30;;;;;;4971636;28;20450;-74
2022/09/08 04:58:32;;;;;;;3.10;2.13;;;23.50;75.20;;;;;;4971673;28;20409;-74
2022/09/08 05:01:26;;;;;;;2.53;2.33;;;23.50;75.30;;;;;;4955230;28;20430;-74
2022/09/08 05:03:59;;;;;;;3.60;2.30;;;23.50;75.50;;;;;;4951592;28;20815;-72
2022/09/08 05:06:31;;;;;;;3.40;2.77;;;23.50;75.60;;;;;;4971924;28;20465;-74
2022/09/08 05:09:00;;;;;;;3.10;2.77;;;23.40;75.50;;;;;;4967082;28;20530;-74
2022/09/08 05:11:31;;;;;;;3.00;2.40;;;23.40;75.60;;;;;;4933518;28;20456;-74
2022/09/08 05:13:58;;;;;;;2.47;2.07;;;23.40;75.60;;;;;;4971641;28;20465;-74
2022/09/08 05:16:27;;;;;;;3.27;2.53;;;23.40;75.40;;;;;;4971321;28;20472;-74
2022/09/08 05:19:00;;;;;;;5.30;2.47;;;23.40;75.50;;;;;;4970910;28;20425;-74
2022/09/08 05:21:30;;;;;;;2.70;2.13;;;23.40;75.60;;;;;;4970939;28;20434;-74
2022/09/08 05:24:00;;;;;;;3.67;2.80;;;23.40;75.90;;;;;;4969637;28;20433;-74
2022/09/08 05:26:31;;;;;;;5.50;2.70;;;23.40;76.00;;;;;;4971808;28;20540;-74
2022/09/08 05:29:25;;;;;;;2.90;2.40;;;23.40;76.10;;;;;;5043412;23;20488;-72
2022/09/08 05:31:53;;;;;;;2.87;2.50;;;23.40;76.10;;;;;;4981669;28;20414;-72
2022/09/08 05:34:22;;;;;;;4.57;2.57;;;23.40;76.30;;;;;;4970428;28;20978;-73
2022/09/08 05:36:52;;;;;;;4.50;2.20;;;23.40;76.30;;;;;;4976522;28;20418;-73
2022/09/08 05:39:20;;;;;;;2.80;2.50;;;23.40;76.30;;;;;;4975591;28;20524;-73
2022/09/08 05:41:49;;;;;;;2.47;2.27;;;23.40;76.40;;;;;;4976438;28;20773;-73
2022/09/08 05:44:17;;;;;;;2.50;2.20;;;23.30;76.40;;;;;;4990044;28;20433;-73
2022/09/08 05:46:47;;;;;;;2.33;2.00;;;23.30;76.50;;;;;;4957080;28;20415;-73
2022/09/08 05:49:15;;;;;;;3.43;2.17;;;23.30;76.50;;;;;;4940985;29;20422;-73
2022/09/08 05:51:47;;;;;;;3.00;2.30;;;23.30;76.90;;;;;;4957958;28;20407;-73
2022/09/08 05:54:16;;;;;;;3.60;2.83;;;23.40;76.60;;;;;;4958106;28;20979;-73
2022/09/08 05:56:44;;;;;;;2.30;2.10;;;23.30;76.60;;;;;;4977315;28;20402;-73
2022/09/08 05:59:13;;;;;;;4.33;2.53;;;23.30;76.70;;;;;;4974257;28;20828;-72
2022/09/08 06:01:41;;;;;;;2.70;2.50;;;23.30;76.80;;;;;;4940485;29;20487;-71
2022/09/08 06:04:08;;;;;;;2.67;2.30;;;23.30;77.10;;;;;;4956681;29;20474;-71
2022/09/08 06:06:38;;;;;;;2.50;2.30;;;23.30;77.40;;;;;;4940758;29;20427;-71
2022/09/08 06:09:06;;;;;;;2.50;2.30;;;23.30;77.60;;;;;;4960902;28;20477;-71
2022/09/08 06:11:34;;;;;;;5.23;2.57;;;23.30;77.50;;;;;;4956614;28;20940;-72
2022/09/08 06:14:03;;;;;;;4.30;2.70;;;23.30;77.50;;;;;;4956293;28;20832;-72
2022/09/08 06:16:29;;;;;;;5.20;2.20;;;23.20;77.50;;;;;;4924708;29;20541;-72
2022/09/08 06:19:01;;;;;;;3.33;2.90;;;23.20;78.30;;;;;;4957679;28;20470;-72
2022/09/08 06:21:32;;;;;;;4.80;3.07;;;23.20;77.60;;;;;;4957529;29;20410;-72
2022/09/08 06:24:01;;;;;;;2.70;2.50;;;23.20;77.50;;;;;;4955842;28;20445;-70
2022/09/08 06:27:00;;;;;;;2.83;1.90;;;23.20;77.60;;;;;;4956335;29;20426;-72
2022/09/08 06:29:49;;;;;;;3.10;2.67;;;23.20;77.50;;;;;;4972465;28;20540;-72
2022/09/08 06:32:21;;;;;;;3.00;2.30;;;23.20;77.60;;;;;;4957313;28;20908;-71
2022/09/08 06:35:13;;;;;;;4.63;2.50;;;23.10;78.50;;;;;;4956142;28;20442;-72
2022/09/08 06:37:42;;;;;;;3.93;2.70;;;23.20;77.80;;;;;;4939375;29;20415;-72
2022/09/08 06:40:16;;;;;;;2.40;1.80;;;23.10;77.70;;;;;;4953075;28;20864;-72
2022/09/08 06:42:48;;;;;;;3.90;2.30;;;23.10;77.80;;;;;;4975583;28;20501;-72
2022/09/08 06:45:26;;;;;;;4.03;2.83;;;23.10;77.90;;;;;;4969102;28;20513;-72
2022/09/08 06:48:11;;;;;;;3.03;2.20;;;23.10;77.80;;;;;;4957132;28;20481;-71
2022/09/08 06:50:52;;;;;;;4.03;2.23;;;23.10;77.90;;;;;;4942526;28;20455;-71
2022/09/08 06:53:26;;;;;;;2.43;2.20;;;23.10;78.90;;;;;;4967758;28;20525;-72
2022/09/08 06:56:06;;;;;;;1.80;1.70;;;23.10;78.10;;;;;;4973717;28;20493;-72
2022/09/08 06:58:33;;;;;;;3.10;2.07;;;23.10;78.00;;;;;;4968819;28;21067;-72
2022/09/08 07:01:17;;;;;;;2.70;1.80;;;23.10;78.00;;;;;;4972036;28;20422;-72
2022/09/08 07:04:24;;;;;;;2.10;1.60;;;23.10;78.00;;;;;;4959083;28;20459;-72
2022/09/08 07:07:17;;;;;;;3.23;2.27;;;23.10;78.10;;;;;;4938301;28;20481;-72
2022/09/08 07:09:53;;;;;;;3.40;2.00;;;23.00;78.20;;;;;;4947992;28;20508;-72
2022/09/08 07:12:28;;;;;;;3.00;2.30;;;23.00;78.20;;;;;;4956644;28;20492;-72
2022/09/08 07:15:36;;;;;;;2.90;1.97;;;23.00;78.20;;;;;;4966905;28;20476;-72
2022/09/08 07:18:21;;;;;;;5.03;2.20;;;23.00;78.30;;;;;;4970834;28;20842;-72
2022/09/08 07:20:47;;;;;;;2.60;1.93;;;23.00;78.30;;;;;;4973459;28;20565;-72
2022/09/08 07:23:21;;;;;;;3.17;2.03;;;23.00;78.30;;;;;;4973313;28;20876;-72
2022/09/08 07:25:57;;;;;;;2.30;2.10;;;23.00;78.40;;;;;;4938430;29;20430;-72
2022/09/08 07:28:31;;;;;;;3.70;2.53;;;23.00;78.50;;;;;;4955960;28;20454;-72
2022/09/08 07:31:02;;;;;;;4.80;2.20;;;23.00;78.50;;;;;;4939453;28;20440;-72
2022/09/08 07:33:36;;;;;;;2.97;2.07;;;22.90;78.40;;;;;;4964414;28;20470;-71
2022/09/08 07:36:02;;;;;;;2.77;2.30;;;23.00;78.60;;;;;;4953737;28;20446;-72
2022/09/08 07:38:41;;;;;;;3.07;2.30;;;23.00;78.70;;;;;;4964660;28;20882;-72
2022/09/08 07:41:11;;;;;;;3.60;2.37;;;22.90;78.70;;;;;;4970449;28;20437;-72
2022/09/08 07:43:37;;;;;;;3.47;2.20;;;22.90;78.70;;;;;;4938748;29;20458;-72
2022/09/08 07:46:06;;;;;;;2.93;2.20;;;22.90;78.90;;;;;;4958048;28;20426;-72
2022/09/08 07:48:53;;;;;;;3.30;2.03;;;22.90;79.00;;;;;;4966556;28;20435;-72
2022/09/08 07:51:19;;;;;;;4.17;2.20;;;22.90;79.20;;;;;;4956874;28;20891;-72
2022/09/08 07:54:04;;;;;;;2.30;2.10;;;22.90;79.20;;;;;;4976448;28;20478;-72
2022/09/08 07:56:45;;;;;;;3.53;1.97;;;22.90;79.20;;;;;;4969556;28;20530;-72
2022/09/08 07:59:23;;;;;;;3.37;2.30;;;22.90;79.20;;;;;;4958214;28;20422;-72
2022/09/08 08:01:57;;;;;;;3.20;2.17;;;22.90;79.40;;;;;;4951632;28;20531;-72
2022/09/08 08:04:50;;;;;;;2.20;2.00;;;22.80;79.30;;;;;;4956579;28;20482;-72
2022/09/08 08:07:43;;;;;;;6.00;2.83;;;22.90;79.40;;;;;;4938720;28;20473;-72
2022/09/08 08:10:27;;;;;;;4.00;2.30;;;22.80;79.50;;;;;;4953041;28;20447;-72
2022/09/08 08:13:22;;;;;;;2.50;2.20;;;22.80;79.60;;;;;;4969302;28;20560;-72
2022/09/08 08:16:11;;;;;;;2.20;1.93;;;22.80;79.70;;;;;;4950345;28;20446;-72
2022/09/08 08:18:53;;;;;;;2.87;1.80;;;22.80;80.10;;;;;;4955776;28;20819;-72
2022/09/08 08:21:24;;;;;;;3.33;2.03;;;22.80;80.10;;;;;;4971394;28;20914;-72
2022/09/08 08:24:18;;;;;;;3.17;1.90;;;22.80;80.10;;;;;;4955110;28;20453;-72
2022/09/08 08:26:50;;;;;;;2.30;1.73;;;22.80;80.90;;;;;;4954211;28;21128;-72
2022/09/08 08:29:46;;;;;;;2.83;2.13;;;22.80;80.10;;;;;;4963261;28;20472;-72
2022/09/08 08:32:21;;;;;;;3.07;2.33;;;22.80;80.20;;;;;;4921391;29;21034;-72
2022/09/08 08:34:57;;;;;;;3.87;2.20;;;22.80;80.20;;;;;;4967093;28;20501;-72
2022/09/08 08:37:29;;;;;;;2.13;1.73;;;22.80;80.20;;;;;;4980556;28;20434;-72
2022/09/08 08:39:56;;;;;;;2.50;1.80;;;22.80;80.30;;;;;;4953976;28;20577;-72
2022/09/08 08:42:59;;;;;;;2.43;1.60;;;22.80;80.30;;;;;;4953419;28;20419;-72
2022/09/08 08:45:56;;;;;;;2.07;1.50;;;22.80;80.30;;;;;;4976405;28;20515;-72
2022/09/08 08:48:39;;;;;;;5.20;1.60;;;22.70;80.30;;;;;;4963432;28;20460;-72
2022/09/08 08:51:16;;;;;;;1.77;1.67;;;22.70;80.30;;;;;;4956880;28;20457;-72
2022/09/08 08:53:52;;;;;;;1.73;1.60;;;22.70;80.40;;;;;;4983146;28;20497;-72
2022/09/08 08:56:30;;;;;;;2.50;1.37;;;22.70;80.50;;;;;;4981454;28;20409;-72
2022/09/08 08:59:01;;;;;;;2.30;1.73;;;22.70;80.60;;;;;;4955910;28;20432;-72
2022/09/08 09:02:12;;;;;;;1.53;1.33;;;22.70;80.70;;;;;;4970315;28;20854;-72
2022/09/08 09:04:57;;;;;;;1.30;1.20;;;22.70;80.70;;;;;;4935261;28;20562;-72
2022/09/08 09:07:51;;;;;;;1.87;1.67;;;22.70;80.80;;;;;;4952761;28;20454;-72
2022/09/08 09:10:38;;;;;;;1.87;1.40;;;22.70;80.80;;;;;;4957799;28;20438;-72
2022/09/08 09:13:31;;;;;;;2.00;1.33;;;22.70;80.80;;;;;;4960812;28;20470;-72
2022/09/08 09:16:40;;;;;;;2.70;1.60;;;22.70;80.90;;;;;;4958514;28;20820;-72
2022/09/08 09:19:31;;;;;;;2.17;1.63;;;22.70;80.90;;;;;;4981645;28;20572;-72
2022/09/08 09:22:20;;;;;;;1.40;1.30;;;22.70;81.10;;;;;;4960582;28;20783;-72
2022/09/08 09:25:12;;;;;;;3.60;1.73;;;22.70;81.10;;;;;;4964187;28;20465;-72
2022/09/08 09:27:44;;;;;;;3.60;1.73;;;22.70;81.10;;;;;;4952400;28;20423;-72
2022/09/08 09:30:23;;;;;;;1.83;1.50;;;22.70;81.10;;;;;;4953490;28;20913;-72
2022/09/08 09:32:54;;;;;;;2.20;1.67;;;22.70;81.20;;;;;;4943545;28;20458;-72
2022/09/08 09:36:16;;;;;;;2.50;1.50;;;22.70;81.30;;;;;;4987196;28;20456;-72
2022/09/08 09:39:16;;;;;;;2.10;1.80;;;22.70;81.40;;;;;;4894019;29;20452;-72
2022/09/08 09:41:50;;;;;;;1.60;1.50;;;22.70;81.40;;;;;;4959178;28;20438;-72
2022/09/08 09:44:39;;;;;;;2.57;1.60;;;22.70;81.50;;;;;;4956250;28;20826;-72
2022/09/08 09:47:13;;;;;;;1.67;1.57;;;22.70;81.30;;;;;;4954045;28;20525;-73
2022/09/08 09:50:13;;;;;;;3.03;1.37;;;22.70;81.20;;;;;;4966587;28;20464;-71
2022/09/08 09:53:07;;;;;;;1.83;1.43;;;22.70;81.20;;;;;;4947923;28;20815;-71
2022/09/08 09:56:01;;;;;;;2.07;1.60;;;22.70;81.10;;;;;;4953465;28;20812;-72
2022/09/08 09:58:52;;;;;;;3.50;1.97;;;22.70;81.00;;;;;;4962426;28;20882;-71
2022/09/08 10:01:44;;;;;;;2.27;1.50;;;22.70;81.00;;;;;;4959545;28;20459;-71
2022/09/08 10:04:40;;;;;;;1.43;1.30;;;22.70;81.00;;;;;;4963623;28;20545;-71
2022/09/08 10:07:24;;;;;;;2.20;1.60;;;22.70;81.10;;;;;;4968318;28;20462;-72
2022/09/08 10:09:56;;;;;;;3.00;1.70;;;22.70;81.20;;;;;;4946157;29;20815;-72
2022/09/08 10:12:37;;;;;;;1.43;1.33;;;22.70;81.20;;;;;;4958961;28;20854;-73
2022/09/08 10:15:20;;;;;;;2.30;1.40;;;22.70;81.20;;;;;;4956205;28;20457;-73
2022/09/08 10:18:05;;;;;;;2.33;1.60;;;22.70;81.20;;;;;;4925221;29;20419;-72
2022/09/08 10:21:05;;;;;;;1.50;1.40;;;22.70;81.00;;;;;;4961276;28;20942;-73
2022/09/08 10:24:31;;;;;;;1.83;1.30;;;22.80;81.10;;;;;;4878599;29;20508;-75
2022/09/08 10:27:03;;;;;;;1.63;1.43;;;22.70;80.90;;;;;;4955804;28;20512;-72
2022/09/08 10:29:34;;;;;;;1.53;1.43;;;22.70;80.80;;;;;;4966328;28;20593;-73
2022/09/08 10:32:09;;;;;;;1.97;1.57;;;22.70;80.80;;;;;;4955899;28;20429;-72
2022/09/08 10:35:05;;;;;;;2.97;1.50;;;22.70;80.80;;;;;;4968796;28;20463;-72
2022/09/08 10:38:02;;;;;;;4.13;1.30;;;22.70;80.70;;;;;;4970926;28;20512;-74
2022/09/08 10:40:52;;;;;;;2.20;1.50;;;22.70;80.80;;;;;;4955236;28;20436;-74
2022/09/08 10:43:37;;;;;;;3.40;1.30;;;22.70;80.90;;;;;;4955674;28;20457;-73
2022/09/08 10:46:21;;;;;;;1.57;1.40;;;22.70;81.00;;;;;;4970345;28;20439;-73
2022/09/08 10:49:17;;;;;;;2.70;1.77;;;22.70;81.00;;;;;;4978698;28;20909;-73
2022/09/08 10:52:12;;;;;;;1.63;1.30;;;22.70;80.90;;;;;;4954121;29;20863;-73
2022/09/08 10:55:07;;;;;;;1.73;1.23;;;22.70;80.70;;;;;;4954542;28;21110;-73
2022/09/08 10:57:43;;;;;;;1.80;1.23;;;22.70;80.60;;;;;;4975105;28;20418;-73
2022/09/08 11:00:15;;;;;;;2.57;1.57;;;22.70;80.50;;;;;;4945681;28;20493;-73
2022/09/08 11:03:00;;;;;;;3.03;1.60;;;22.70;80.30;;;;;;4965155;28;20422;-73
2022/09/08 11:05:46;;;;;;;2.57;1.50;;;22.70;80.20;;;;;;4941196;28;20462;-74
2022/09/08 11:08:49;;;;;;;5.30;1.53;;;22.70;80.00;;;;;;4966219;28;20425;-73
2022/09/08 11:11:27;;;;;;;2.13;1.43;;;22.80;79.90;;;;;;4965440;28;20871;-73
2022/09/08 11:14:17;;;;;;;1.27;1.10;;;22.70;79.60;;;;;;4956159;28;20488;-74
2022/09/08 11:17:00;;;;;;;1.77;1.40;;;22.80;79.60;;;;;;4962474;28;20425;-73
2022/09/08 11:20:10;;;;;;;5.10;1.93;;;22.80;79.40;;;;;;4954118;28;20454;-73
2022/09/08 11:23:12;;;;;;;1.30;1.13;;;22.80;79.10;;;;;;4913815;29;20865;-73
2022/09/08 11:26:00;;;;;;;1.53;1.27;;;22.80;78.90;;;;;;4983383;28;20511;-73
2022/09/08 11:28:38;;;;;;;2.43;1.20;;;22.80;78.80;;;;;;4963140;28;20508;-73
2022/09/08 11:31:36;;;;;;;1.70;1.10;;;22.80;78.60;;;;;;4968383;28;20989;-73
2022/09/08 11:34:07;;;;;;;3.30;1.63;;;22.80;78.50;;;;;;4939394;28;20466;-73
2022/09/08 11:36:45;;;;;;;1.73;1.30;;;22.80;78.60;;;;;;4972780;28;20917;-73
2022/09/08 11:39:40;;;;;;;2.90;1.40;;;22.90;78.70;;;;;;4958521;28;20788;-73
2022/09/08 11:42:43;;;;;;;2.30;1.20;;;22.90;78.50;;;;;;4944602;29;20461;-73
2022/09/08 11:45:23;;;;;;;2.23;1.60;;;22.90;78.40;;;;;;4967409;28;20471;-74
2022/09/08 11:47:58;;;;;;;1.53;1.30;;;22.90;78.10;;;;;;4937866;28;20565;-74
2022/09/08 11:51:04;;;;;;;2.10;1.40;;;22.90;77.90;;;;;;4958779;28;20410;-73
2022/09/08 11:53:43;;;;;;;1.50;1.40;;;22.90;77.60;;;;;;4920789;28;20470;-73
2022/09/08 11:56:30;;;;;;;1.47;1.20;;;22.90;77.50;;;;;;4959770;28;20585;-73
2022/09/08 11:59:33;;;;;;;2.57;1.27;;;22.90;77.40;;;;;;4973646;28;20469;-73
2022/09/08 12:02:21;;;;;;;1.77;1.40;;;23.00;77.40;;;;;;4950421;28;20457;-73
2022/09/08 12:05:12;;;;;;;3.70;1.53;;;23.00;77.30;;;;;;4972629;28;20474;-73
2022/09/08 12:07:42;;;;;;;2.70;1.10;;;23.00;77.20;;;;;;4972584;28;20917;-73
2022/09/08 12:10:26;;;;;;;1.30;1.10;;;23.00;77.10;;;;;;4944109;29;20856;-73
2022/09/08 12:13:06;;;;;;;1.77;1.30;;;23.00;77.00;;;;;;4963009;28;20459;-74
2022/09/08 12:15:46;;;;;;;1.53;1.30;;;23.10;76.90;;;;;;4953937;28;20463;-74
2022/09/08 12:18:37;;;;;;;1.70;1.60;;;23.10;76.80;;;;;;4965219;28;20426;-75
2022/09/08 12:21:17;;;;;;;4.40;1.53;;;23.10;76.70;;;;;;4958222;28;20448;-73
2022/09/08 12:23:52;;;;;;;2.47;1.47;;;23.10;76.50;;;;;;4953977;28;20450;-73
2022/09/08 12:26:27;;;;;;;3.53;1.50;;;23.10;76.40;;;;;;4935007;29;20518;-72
2022/09/08 12:29:08;;;;;;;3.53;1.67;;;23.10;76.00;;;;;;4971934;28;20472;-75
2022/09/08 12:31:46;;;;;;;2.73;1.50;;;23.10;75.60;;;;;;4955593;28;20515;-74
2022/09/08 12:34:52;;;;;;;2.87;1.37;;;23.20;75.50;;;;;;4947271;28;20895;-73
2022/09/08 12:37:41;;;;;;;3.47;1.40;;;23.10;75.20;;;;;;4921114;28;20475;-74
2022/09/08 12:40:14;;;;;;;3.20;1.50;;;23.20;75.20;;;;;;4936873;29;20501;-74
2022/09/08 12:43:18;;;;;;;2.90;1.37;;;23.20;75.20;;;;;;4953008;28;20431;-74
2022/09/08 12:46:07;;;;;;;2.07;1.40;;;23.20;75.30;;;;;;4954296;28;20417;-74
2022/09/08 12:48:51;;;;;;;2.77;1.43;;;23.20;75.30;;;;;;4959719;28;20423;-74
2022/09/08 12:51:31;;;;;;;1.90;1.27;;;23.20;75.20;;;;;;4922216;28;20408;-74
2022/09/08 12:54:27;;;;;;;1.50;1.17;;;23.20;75.20;;;;;;4954878;28;20474;-74
2022/09/08 12:57:30;;;;;;;2.37;1.33;;;23.30;75.30;;;;;;4953833;28;20451;-73
2022/09/08 13:00:05;;;;;;;1.77;1.40;;;23.30;75.10;;;;;;4965680;28;20422;-73
2022/09/08 13:02:53;;;;;;;2.30;1.90;;;23.30;75.00;;;;;;4968219;28;20423;-73
2022/09/08 13:05:52;;;;;;;1.50;1.40;;;23.30;74.80;;;;;;4950875;28;20446;-74
2022/09/08 13:08:42;;;;;;;3.10;1.50;;;23.40;74.70;;;;;;4938524;29;20429;-73
2022/09/08 13:11:19;;;;;;;1.33;1.23;;;23.40;74.40;;;;;;4961585;28;20446;-74
2022/09/08 13:13:48;;;;;;;4.50;1.20;;;23.40;74.30;;;;;;4958617;28;20564;-73
2022/09/08 13:16:55;;;;;;;1.23;1.13;;;23.40;74.10;;;;;;4944875;28;20634;-73
2022/09/08 13:19:31;;;;;;;2.10;1.47;;;23.40;73.90;;;;;;4960594;28;20469;-73
2022/09/08 13:22:30;;;;;;;1.70;1.10;;;23.50;73.70;;;;;;4972490;28;20414;-73
2022/09/08 13:25:14;;;;;;;2.50;1.37;;;23.50;73.30;;;;;;4917539;29;20562;-73
2022/09/08 13:28:12;;;;;;;1.37;1.27;;;23.50;73.10;;;;;;4953734;28;20464;-73
2022/09/08 13:31:04;;;;;;;1.27;1.17;;;23.50;72.70;;;;;;4957702;28;20460;-73
2022/09/08 13:34:00;;;;;;;1.70;1.33;;;23.60;72.50;;;;;;4927048;28;20488;-73
2022/09/08 13:37:00;;;;;;;3.87;1.40;;;23.60;72.20;;;;;;4970596;28;20422;-73
2022/09/08 13:39:38;;;;;;;2.57;1.30;;;23.60;72.10;;;;;;4921080;28;20476;-73
2022/09/08 13:42:28;;;;;;;1.30;1.00;;;23.60;71.90;;;;;;4957082;28;20417;-73
2022/09/08 13:44:58;;;;;;;1.53;1.20;;;23.60;71.50;;;;;;4952452;28;20561;-73
2022/09/08 13:47:31;;;;;;;3.27;1.60;;;23.70;71.60;;;;;;4951565;28;20538;-73
2022/09/08 13:50:01;;;;;;;7.00;1.30;;;23.70;71.40;;;;;;4953896;29;20555;-73
2022/09/08 13:52:52;;;;;;;1.70;1.33;;;23.70;71.40;;;;;;4965721;28;20438;-73